sensor_id;sensor_type;location;lat;lon;timestamp;pressure;altitude;pressure_sealevel;temperature;humidity
72677;BME280;60755;51.374;10.662;2023-06-22T00:01:23;97575.94;;;17.43;100.00
72677;BME280;60755;51.374;10.662;2023-06-22T00:03:50;97571.16;;;17.50;100.00
72677;BME280;60755;51.374;10.662;2023-06-22T00:06:17;97561.03;;;17.52;100.00
72677;BME280;60755;51.374;10.662;2023-06-22T00:08:44;97566.91;;;17.44;100.00
72677;BME280;60755;51.374;10.662;2023-06-22T00:11:12;97569.28;;;17.40;100.00
72677;BME280;60755;51.374;10.662;2023-06-22T00:13:39;97569.84;;;17.37;100.00
72677;BME280;60755;51.374;10.662;2023-06-22T00:16:06;97569.59;;;17.33;100.00
72677;BME280;60755;51.374;10.662;2023-06-22T00:18:33;97576.22;;;17.31;100.00
72677;BME280;60755;51.374;10.662;2023-06-22T00:21:00;97584.47;;;17.29;100.00
72677;BME280;60755;51.374;10.662;2023-06-22T00:23:27;97581.28;;;17.27;100.00
72677;BME280;60755;51.374;10.662;2023-06-22T00:25:59;97592.44;;;17.24;100.00
72677;BME280;60755;51.374;10.662;2023-06-22T00:28:27;97593.50;;;17.23;100.00
72677;BME280;60755;51.374;10.662;2023-06-22T00:30:54;97601.47;;;17.23;100.00
72677;BME280;60755;51.374;10.662;2023-06-22T00:33:21;97596.69;;;17.36;100.00
72677;BME280;60755;51.374;10.662;2023-06-22T00:35:48;97595.06;;;17.50;100.00
72677;BME280;60755;51.374;10.662;2023-06-22T00:38:18;97590.84;;;17.33;100.00
72677;BME280;60755;51.374;10.662;2023-06-22T00:40:45;97594.84;;;17.16;100.00
72677;BME280;60755;51.374;10.662;2023-06-22T00:43:14;97586.63;;;17.07;100.00
72677;BME280;60755;51.374;10.662;2023-06-22T00:45:42;97582.94;;;16.98;100.00
72677;BME280;60755;51.374;10.662;2023-06-22T00:48:09;97585.34;;;16.79;100.00
72677;BME280;60755;51.374;10.662;2023-06-22T00:50:36;97571.78;;;16.75;100.00
72677;BME280;60755;51.374;10.662;2023-06-22T00:53:05;97577.38;;;16.69;100.00
72677;BME280;60755;51.374;10.662;2023-06-22T00:55:33;97574.16;;;16.62;100.00
72677;BME280;60755;51.374;10.662;2023-06-22T00:58:03;97565.13;;;16.63;100.00
72677;BME280;60755;51.374;10.662;2023-06-22T01:00:31;97563.28;;;16.63;100.00
72677;BME280;60755;51.374;10.662;2023-06-22T01:03:01;97569.63;;;16.67;100.00
72677;BME280;60755;51.374;10.662;2023-06-22T01:05:29;97570.97;;;16.65;100.00
72677;BME280;60755;51.374;10.662;2023-06-22T01:08:06;97564.06;;;16.64;100.00
72677;BME280;60755;51.374;10.662;2023-06-22T01:10:43;97559.81;;;16.63;100.00
72677;BME280;60755;51.374;10.662;2023-06-22T01:13:18;97563.53;;;16.62;100.00
72677;BME280;60755;51.374;10.662;2023-06-22T01:15:51;97550.00;;;16.63;100.00
72677;BME280;60755;51.374;10.662;2023-06-22T01:18:22;97545.22;;;16.65;100.00
72677;BME280;60755;51.374;10.662;2023-06-22T01:20:52;97549.47;;;16.66;100.00
72677;BME280;60755;51.374;10.662;2023-06-22T01:23:27;97546.84;;;16.71;100.00
72677;BME280;60755;51.374;10.662;2023-06-22T01:26:04;97541.00;;;16.74;100.00
72677;BME280;60755;51.374;10.662;2023-06-22T01:28:43;97536.75;;;16.78;100.00
72677;BME280;60755;51.374;10.662;2023-06-22T01:31:13;97535.41;;;16.81;100.00
72677;BME280;60755;51.374;10.662;2023-06-22T01:33:42;97539.94;;;16.81;100.00
72677;BME280;60755;51.374;10.662;2023-06-22T01:36:10;97532.75;;;16.81;100.00
72677;BME280;60755;51.374;10.662;2023-06-22T01:38:38;97534.09;;;16.73;100.00
72677;BME280;60755;51.374;10.662;2023-06-22T01:41:06;97523.47;;;16.68;100.00
72677;BME280;60755;51.374;10.662;2023-06-22T01:43:33;97517.09;;;16.64;100.00
72677;BME280;60755;51.374;10.662;2023-06-22T01:46:03;97514.69;;;16.58;100.00
72677;BME280;60755;51.374;10.662;2023-06-22T01:48:30;97517.63;;;16.56;100.00
72677;BME280;60755;51.374;10.662;2023-06-22T01:50:57;97514.72;;;16.47;100.00
72677;BME280;60755;51.374;10.662;2023-06-22T01:53:24;97511.00;;;16.48;100.00
72677;BME280;60755;51.374;10.662;2023-06-22T01:55:52;97510.72;;;16.50;100.00
72677;BME280;60755;51.374;10.662;2023-06-22T01:58:20;97510.72;;;16.55;100.00
72677;BME280;60755;51.374;10.662;2023-06-22T02:00:54;97505.41;;;16.60;100.00
72677;BME280;60755;51.374;10.662;2023-06-22T02:03:27;97506.75;;;16.63;100.00
72677;BME280;60755;51.374;10.662;2023-06-22T02:06:01;97498.00;;;16.57;100.00
72677;BME280;60755;51.374;10.662;2023-06-22T02:08:31;97493.75;;;16.61;100.00
72677;BME280;60755;51.374;10.662;2023-06-22T02:10:59;97502.22;;;16.63;100.00
72677;BME280;60755;51.374;10.662;2023-06-22T02:13:29;97500.09;;;16.65;100.00
72677;BME280;60755;51.374;10.662;2023-06-22T02:15:57;97496.69;;;16.70;100.00
72677;BME280;60755;51.374;10.662;2023-06-22T02:18:25;97498.81;;;16.73;100.00
72677;BME280;60755;51.374;10.662;2023-06-22T02:20:52;97496.91;;;16.84;100.00
72677;BME280;60755;51.374;10.662;2023-06-22T02:23:19;97501.44;;;16.93;100.00
72677;BME280;60755;51.374;10.662;2023-06-22T02:25:46;97500.84;;;17.06;100.00
72677;BME280;60755;51.374;10.662;2023-06-22T02:28:13;97504.81;;;17.19;100.00
72677;BME280;60755;51.374;10.662;2023-06-22T02:30:40;97508.00;;;17.26;100.00
72677;BME280;60755;51.374;10.662;2023-06-22T02:33:07;97504.78;;;17.34;100.00
72677;BME280;60755;51.374;10.662;2023-06-22T02:35:35;97507.38;;;17.40;100.00
72677;BME280;60755;51.374;10.662;2023-06-22T02:38:04;97518.25;;;17.48;100.00
72677;BME280;60755;51.374;10.662;2023-06-22T02:40:31;97515.59;;;17.53;100.00
72677;BME280;60755;51.374;10.662;2023-06-22T02:42:58;97520.34;;;17.61;100.00
72677;BME280;60755;51.374;10.662;2023-06-22T02:45:27;97518.44;;;17.67;100.00
72677;BME280;60755;51.374;10.662;2023-06-22T02:47:55;97536.53;;;17.70;100.00
72677;BME280;60755;51.374;10.662;2023-06-22T02:50:23;97537.59;;;17.74;100.00
72677;BME280;60755;51.374;10.662;2023-06-22T02:52:52;97551.91;;;17.83;100.00
72677;BME280;60755;51.374;10.662;2023-06-22T02:55:20;97550.81;;;17.89;100.00
72677;BME280;60755;51.374;10.662;2023-06-22T02:57:53;97559.28;;;17.97;100.00
72677;BME280;60755;51.374;10.662;2023-06-22T03:00:21;97570.97;;;17.96;100.00
72677;BME280;60755;51.374;10.662;2023-06-22T03:02:49;97578.50;;;17.83;100.00
72677;BME280;60755;51.374;10.662;2023-06-22T03:05:17;97584.09;;;17.72;100.00
72677;BME280;60755;51.374;10.662;2023-06-22T03:07:45;97579.56;;;17.77;100.00
72677;BME280;60755;51.374;10.662;2023-06-22T03:10:16;97599.78;;;17.68;100.00
72677;BME280;60755;51.374;10.662;2023-06-22T03:12:43;97607.81;;;17.58;100.00
72677;BME280;60755;51.374;10.662;2023-06-22T03:15:12;97612.00;;;17.64;100.00
72677;BME280;60755;51.374;10.662;2023-06-22T03:17:40;97612.56;;;17.71;100.00
72677;BME280;60755;51.374;10.662;2023-06-22T03:20:09;97612.28;;;17.68;100.00
72677;BME280;60755;51.374;10.662;2023-06-22T03:22:38;97617.88;;;17.61;100.00
72677;BME280;60755;51.374;10.662;2023-06-22T03:25:06;97619.22;;;17.48;100.00
72677;BME280;60755;51.374;10.662;2023-06-22T03:27:42;97620.84;;;17.39;100.00
72677;BME280;60755;51.374;10.662;2023-06-22T03:30:11;97631.22;;;17.36;100.00
72677;BME280;60755;51.374;10.662;2023-06-22T03:32:38;97631.78;;;17.32;100.00
72677;BME280;60755;51.374;10.662;2023-06-22T03:35:07;97637.59;;;17.45;100.00
72677;BME280;60755;51.374;10.662;2023-06-22T03:37:36;97630.16;;;17.37;100.00
72677;BME280;60755;51.374;10.662;2023-06-22T03:40:05;97623.78;;;17.38;100.00
72677;BME280;60755;51.374;10.662;2023-06-22T03:42:34;97624.84;;;17.31;100.00
72677;BME280;60755;51.374;10.662;2023-06-22T03:45:04;97621.66;;;17.24;100.00
72677;BME280;60755;51.374;10.662;2023-06-22T03:47:31;97619.81;;;17.30;100.00
72677;BME280;60755;51.374;10.662;2023-06-22T03:49:59;97616.34;;;17.29;100.00
72677;BME280;60755;51.374;10.662;2023-06-22T03:52:26;97614.75;;;17.28;100.00
72677;BME280;60755;51.374;10.662;2023-06-22T03:54:53;97606.78;;;17.33;100.00
72677;BME280;60755;51.374;10.662;2023-06-22T03:57:19;97599.88;;;17.38;100.00
72677;BME280;60755;51.374;10.662;2023-06-22T03:59:46;97586.56;;;17.43;100.00
72677;BME280;60755;51.374;10.662;2023-06-22T04:02:15;97581.22;;;17.48;100.00
72677;BME280;60755;51.374;10.662;2023-06-22T04:04:42;97573.50;;;17.61;100.00
72677;BME280;60755;51.374;10.662;2023-06-22T04:07:09;97570.81;;;17.72;100.00
72677;BME280;60755;51.374;10.662;2023-06-22T04:09:36;97564.16;;;17.64;100.00
72677;BME280;60755;51.374;10.662;2023-06-22T04:12:04;97553.78;;;17.78;100.00
72677;BME280;60755;51.374;10.662;2023-06-22T04:14:31;97551.63;;;17.90;100.00
72677;BME280;60755;51.374;10.662;2023-06-22T04:16:58;97542.50;;;17.96;100.00
72677;BME280;60755;51.374;10.662;2023-06-22T04:19:27;97530.50;;;18.04;100.00
72677;BME280;60755;51.374;10.662;2023-06-22T04:21:54;97534.16;;;18.18;100.00
72677;BME280;60755;51.374;10.662;2023-06-22T04:24:21;97528.22;;;18.31;100.00
72677;BME280;60755;51.374;10.662;2023-06-22T04:26:48;97533.34;;;18.57;100.00
72677;BME280;60755;51.374;10.662;2023-06-22T04:29:19;97532.94;;;18.79;100.00
72677;BME280;60755;51.374;10.662;2023-06-22T04:31:46;97532.41;;;19.06;100.00
72677;BME280;60755;51.374;10.662;2023-06-22T04:34:16;97527.38;;;19.28;100.00
72677;BME280;60755;51.374;10.662;2023-06-22T04:36:45;97524.66;;;19.33;100.00
72677;BME280;60755;51.374;10.662;2023-06-22T04:39:12;97520.56;;;19.41;100.00
72677;BME280;60755;51.374;10.662;2023-06-22T04:41:40;97526.47;;;19.62;100.00
72677;BME280;60755;51.374;10.662;2023-06-22T04:44:10;97522.81;;;19.58;100.00
72677;BME280;60755;51.374;10.662;2023-06-22T04:46:39;97516.47;;;19.48;100.00
72677;BME280;60755;51.374;10.662;2023-06-22T04:49:06;97513.59;;;19.21;100.00
72677;BME280;60755;51.374;10.662;2023-06-22T04:51:38;97497.47;;;19.31;100.00
72677;BME280;60755;51.374;10.662;2023-06-22T04:54:07;97508.94;;;19.32;100.00
72677;BME280;60755;51.374;10.662;2023-06-22T04:56:35;97507.41;;;19.49;100.00
72677;BME280;60755;51.374;10.662;2023-06-22T04:59:02;97507.22;;;19.65;100.00
72677;BME280;60755;51.374;10.662;2023-06-22T05:01:30;97505.59;;;19.69;100.00
72677;BME280;60755;51.374;10.662;2023-06-22T05:03:58;97504.59;;;19.83;100.00
72677;BME280;60755;51.374;10.662;2023-06-22T05:06:27;97498.16;;;20.03;100.00
72677;BME280;60755;51.374;10.662;2023-06-22T05:08:56;97503.59;;;19.98;100.00
72677;BME280;60755;51.374;10.662;2023-06-22T05:11:26;97502.84;;;20.11;100.00
72677;BME280;60755;51.374;10.662;2023-06-22T05:13:54;97511.78;;;20.21;99.43
72677;BME280;60755;51.374;10.662;2023-06-22T05:16:22;97514.97;;;20.23;96.64
72677;BME280;60755;51.374;10.662;2023-06-22T05:18:54;97516.22;;;20.30;95.60
72677;BME280;60755;51.374;10.662;2023-06-22T05:21:23;97514.22;;;20.36;97.32
72677;BME280;60755;51.374;10.662;2023-06-22T05:23:51;97515.03;;;20.36;97.84
72677;BME280;60755;51.374;10.662;2023-06-22T05:26:18;97509.41;;;20.38;98.47
72677;BME280;60755;51.374;10.662;2023-06-22T05:28:48;97513.59;;;20.25;97.42
72677;BME280;60755;51.374;10.662;2023-06-22T05:31:15;97518.31;;;20.15;98.25
72677;BME280;60755;51.374;10.662;2023-06-22T05:33:43;97508.69;;;20.32;97.83
72677;BME280;60755;51.374;10.662;2023-06-22T05:36:11;97514.13;;;20.46;98.10
72677;BME280;60755;51.374;10.662;2023-06-22T05:38:39;97514.91;;;20.47;95.70
72677;BME280;60755;51.374;10.662;2023-06-22T05:41:06;97518.13;;;20.62;95.65
72677;BME280;60755;51.374;10.662;2023-06-22T05:43:34;97521.75;;;20.85;96.33
72677;BME280;60755;51.374;10.662;2023-06-22T05:46:03;97514.13;;;20.92;97.74
72677;BME280;60755;51.374;10.662;2023-06-22T05:48:31;97514.00;;;20.84;93.56
72677;BME280;60755;51.374;10.662;2023-06-22T05:50:58;97515.94;;;20.97;92.65
72677;BME280;60755;51.374;10.662;2023-06-22T05:53:25;97512.19;;;21.12;94.37
72677;BME280;60755;51.374;10.662;2023-06-22T05:55:53;97509.53;;;21.53;92.25
72677;BME280;60755;51.374;10.662;2023-06-22T05:58:20;97506.78;;;22.08;88.42
72677;BME280;60755;51.374;10.662;2023-06-22T06:00:47;97503.66;;;23.53;82.86
72677;BME280;60755;51.374;10.662;2023-06-22T06:03:16;97489.97;;;25.31;74.68
72677;BME280;60755;51.374;10.662;2023-06-22T06:05:44;97487.47;;;27.17;71.15
72677;BME280;60755;51.374;10.662;2023-06-22T06:08:11;97494.81;;;28.18;63.39
72677;BME280;60755;51.374;10.662;2023-06-22T06:10:38;97500.44;;;27.60;63.88
72677;BME280;60755;51.374;10.662;2023-06-22T06:13:06;97506.09;;;26.98;65.43
72677;BME280;60755;51.374;10.662;2023-06-22T06:15:34;97503.03;;;26.42;68.21
72677;BME280;60755;51.374;10.662;2023-06-22T06:18:01;97509.94;;;24.66;71.40
72677;BME280;60755;51.374;10.662;2023-06-22T06:20:32;97518.13;;;24.87;72.98
72677;BME280;60755;51.374;10.662;2023-06-22T06:22:59;97510.97;;;24.91;72.78
72677;BME280;60755;51.374;10.662;2023-06-22T06:25:26;97516.25;;;24.26;74.26
72677;BME280;60755;51.374;10.662;2023-06-22T06:27:54;97507.69;;;24.76;75.21
72677;BME280;60755;51.374;10.662;2023-06-22T06:30:22;97514.25;;;25.14;73.31
72677;BME280;60755;51.374;10.662;2023-06-22T06:32:50;97507.38;;;25.25;73.00
72677;BME280;60755;51.374;10.662;2023-06-22T06:35:17;97516.22;;;25.34;72.59
72677;BME280;60755;51.374;10.662;2023-06-22T06:37:47;97517.06;;;25.17;72.51
72677;BME280;60755;51.374;10.662;2023-06-22T06:40:17;97506.00;;;25.19;72.24
72677;BME280;60755;51.374;10.662;2023-06-22T06:42:46;97507.97;;;25.39;71.24
72677;BME280;60755;51.374;10.662;2023-06-22T06:45:16;97510.19;;;25.37;73.28
72677;BME280;60755;51.374;10.662;2023-06-22T06:47:44;97511.78;;;25.38;75.17
72677;BME280;60755;51.374;10.662;2023-06-22T06:50:12;97505.94;;;25.36;73.31
72677;BME280;60755;51.374;10.662;2023-06-22T06:52:39;97504.94;;;25.41;76.22
72677;BME280;60755;51.374;10.662;2023-06-22T06:55:09;97508.06;;;25.81;72.56
72677;BME280;60755;51.374;10.662;2023-06-22T06:57:37;97505.84;;;26.25;69.88
72677;BME280;60755;51.374;10.662;2023-06-22T07:00:06;97512.22;;;27.93;64.71
72677;BME280;60755;51.374;10.662;2023-06-22T07:02:38;97508.25;;;28.86;63.50
72677;BME280;60755;51.374;10.662;2023-06-22T07:05:06;97504.41;;;28.72;59.99
72677;BME280;60755;51.374;10.662;2023-06-22T07:07:34;97512.06;;;28.97;62.49
72677;BME280;60755;51.374;10.662;2023-06-22T07:10:02;97512.75;;;28.94;59.71
72677;BME280;60755;51.374;10.662;2023-06-22T07:12:30;97517.78;;;28.24;59.17
72677;BME280;60755;51.374;10.662;2023-06-22T07:15:01;97524.94;;;27.31;61.64
72677;BME280;60755;51.374;10.662;2023-06-22T07:17:29;97517.97;;;27.06;66.75
72677;BME280;60755;51.374;10.662;2023-06-22T07:19:56;97518.09;;;27.33;64.84
72677;BME280;60755;51.374;10.662;2023-06-22T07:22:23;97516.44;;;26.96;64.54
72677;BME280;60755;51.374;10.662;2023-06-22T07:24:51;97512.69;;;27.82;63.68
72677;BME280;60755;51.374;10.662;2023-06-22T07:27:18;97509.66;;;28.80;63.30
72677;BME280;60755;51.374;10.662;2023-06-22T07:29:47;97501.47;;;29.71;57.17
72677;BME280;60755;51.374;10.662;2023-06-22T07:32:14;97502.84;;;30.35;55.00
72677;BME280;60755;51.374;10.662;2023-06-22T07:34:41;97494.56;;;30.90;51.98
72677;BME280;60755;51.374;10.662;2023-06-22T07:37:09;97503.47;;;32.16;53.29
72677;BME280;60755;51.374;10.662;2023-06-22T07:39:36;97511.81;;;31.47;53.75
72677;BME280;60755;51.374;10.662;2023-06-22T07:42:04;97510.16;;;31.39;52.65
72677;BME280;60755;51.374;10.662;2023-06-22T07:44:31;97509.56;;;30.06;54.68
72677;BME280;60755;51.374;10.662;2023-06-22T07:47:00;97514.16;;;29.51;59.68
72677;BME280;60755;51.374;10.662;2023-06-22T07:49:28;97505.63;;;30.20;55.07
72677;BME280;60755;51.374;10.662;2023-06-22T07:51:55;97500.53;;;30.57;55.28
72677;BME280;60755;51.374;10.662;2023-06-22T07:54:22;97503.75;;;30.43;56.90
72677;BME280;60755;51.374;10.662;2023-06-22T07:56:49;97499.63;;;30.30;58.60
72677;BME280;60755;51.374;10.662;2023-06-22T07:59:17;97496.13;;;30.91;59.22
72677;BME280;60755;51.374;10.662;2023-06-22T08:01:44;97500.44;;;29.95;59.42
72677;BME280;60755;51.374;10.662;2023-06-22T08:04:12;97502.75;;;30.13;59.90
72677;BME280;60755;51.374;10.662;2023-06-22T08:06:40;97496.44;;;29.89;59.34
72677;BME280;60755;51.374;10.662;2023-06-22T08:09:07;97501.03;;;30.43;56.95
72677;BME280;60755;51.374;10.662;2023-06-22T08:11:35;97498.38;;;28.22;63.27
72677;BME280;60755;51.374;10.662;2023-06-22T08:14:02;97492.22;;;29.41;57.22
72677;BME280;60755;51.374;10.662;2023-06-22T08:16:29;97498.97;;;29.00;61.86
72677;BME280;60755;51.374;10.662;2023-06-22T08:18:57;97501.06;;;29.22;58.80
72677;BME280;60755;51.374;10.662;2023-06-22T08:21:25;97504.75;;;28.86;60.52
72677;BME280;60755;51.374;10.662;2023-06-22T08:23:53;97510.25;;;28.18;58.26
72677;BME280;60755;51.374;10.662;2023-06-22T08:26:20;97505.97;;;28.17;59.30
72677;BME280;60755;51.374;10.662;2023-06-22T08:28:48;97503.91;;;28.54;60.28
72677;BME280;60755;51.374;10.662;2023-06-22T08:31:15;97494.97;;;28.65;57.38
72677;BME280;60755;51.374;10.662;2023-06-22T08:33:42;97500.97;;;28.31;59.61
72677;BME280;60755;51.374;10.662;2023-06-22T08:36:11;97489.50;;;28.22;60.67
72677;BME280;60755;51.374;10.662;2023-06-22T08:38:40;97494.41;;;28.04;58.32
72677;BME280;60755;51.374;10.662;2023-06-22T08:41:07;97491.69;;;28.04;62.37
72677;BME280;60755;51.374;10.662;2023-06-22T08:43:35;97490.97;;;27.54;61.57
72677;BME280;60755;51.374;10.662;2023-06-22T08:46:02;97498.91;;;27.02;62.20
72677;BME280;60755;51.374;10.662;2023-06-22T08:48:29;97495.38;;;27.22;62.76
72677;BME280;60755;51.374;10.662;2023-06-22T08:50:56;97497.84;;;27.52;61.30
72677;BME280;60755;51.374;10.662;2023-06-22T08:53:24;97484.81;;;26.84;62.09
72677;BME280;60755;51.374;10.662;2023-06-22T08:55:52;97477.75;;;26.80;64.82
72677;BME280;60755;51.374;10.662;2023-06-22T08:58:20;97483.47;;;26.78;62.73
72677;BME280;60755;51.374;10.662;2023-06-22T09:00:48;97481.44;;;26.75;63.06
72677;BME280;60755;51.374;10.662;2023-06-22T09:03:17;97477.28;;;26.77;63.25
72677;BME280;60755;51.374;10.662;2023-06-22T09:05:46;97470.78;;;26.91;62.65
72677;BME280;60755;51.374;10.662;2023-06-22T09:08:13;97467.81;;;27.04;63.55
72677;BME280;60755;51.374;10.662;2023-06-22T09:10:40;97473.56;;;27.27;63.71
72677;BME280;60755;51.374;10.662;2023-06-22T09:13:09;97470.97;;;27.07;61.97
72677;BME280;60755;51.374;10.662;2023-06-22T09:15:37;97459.66;;;26.92;67.78
72677;BME280;60755;51.374;10.662;2023-06-22T09:18:04;97459.81;;;27.08;61.93
72677;BME280;60755;51.374;10.662;2023-06-22T09:20:31;97458.75;;;26.76;62.66
72677;BME280;60755;51.374;10.662;2023-06-22T09:22:59;97456.03;;;26.76;61.22
72677;BME280;60755;51.374;10.662;2023-06-22T09:25:26;97464.91;;;26.76;60.55
72677;BME280;60755;51.374;10.662;2023-06-22T09:27:54;97451.19;;;26.69;64.15
72677;BME280;60755;51.374;10.662;2023-06-22T09:30:22;97451.91;;;26.91;62.65
72677;BME280;60755;51.374;10.662;2023-06-22T09:32:50;97454.84;;;26.98;63.14
72677;BME280;60755;51.374;10.662;2023-06-22T09:35:18;97451.28;;;27.18;63.03
72677;BME280;60755;51.374;10.662;2023-06-22T09:37:46;97446.78;;;27.10;62.26
72677;BME280;60755;51.374;10.662;2023-06-22T09:40:13;97436.84;;;27.02;64.41
72677;BME280;60755;51.374;10.662;2023-06-22T09:42:43;97440.03;;;27.04;61.37
72677;BME280;60755;51.374;10.662;2023-06-22T09:45:10;97435.28;;;27.01;61.13
72677;BME280;60755;51.374;10.662;2023-06-22T09:47:39;97429.47;;;27.11;62.63
72677;BME280;60755;51.374;10.662;2023-06-22T09:50:06;97428.34;;;27.24;59.89
72677;BME280;60755;51.374;10.662;2023-06-22T09:52:34;97431.69;;;26.97;58.17
72677;BME280;60755;51.374;10.662;2023-06-22T09:55:02;97431.63;;;26.60;59.23
72677;BME280;60755;51.374;10.662;2023-06-22T09:57:30;97432.97;;;26.54;61.20
72677;BME280;60755;51.374;10.662;2023-06-22T09:59:57;97439.97;;;26.67;63.73
72677;BME280;60755;51.374;10.662;2023-06-22T10:02:24;97435.16;;;26.73;64.42
72677;BME280;60755;51.374;10.662;2023-06-22T10:04:54;97426.66;;;26.50;64.93
72677;BME280;60755;51.374;10.662;2023-06-22T10:07:22;97424.47;;;26.64;64.15
72677;BME280;60755;51.374;10.662;2023-06-22T10:09:49;97419.31;;;26.84;60.56
72677;BME280;60755;51.374;10.662;2023-06-22T10:12:16;97414.94;;;26.91;62.85
72677;BME280;60755;51.374;10.662;2023-06-22T10:14:43;97425.81;;;26.95;63.61
72677;BME280;60755;51.374;10.662;2023-06-22T10:17:10;97420.56;;;27.11;63.48
72677;BME280;60755;51.374;10.662;2023-06-22T10:19:38;97420.47;;;27.07;61.61
72677;BME280;60755;51.374;10.662;2023-06-22T10:22:08;97415.31;;;27.14;59.79
72677;BME280;60755;51.374;10.662;2023-06-22T10:24:36;97407.84;;;26.87;60.81
72677;BME280;60755;51.374;10.662;2023-06-22T10:27:04;97407.06;;;26.98;62.68
72677;BME280;60755;51.374;10.662;2023-06-22T10:29:32;97404.06;;;27.12;62.60
72677;BME280;60755;51.374;10.662;2023-06-22T10:32:00;97409.69;;;27.07;60.36
72677;BME280;60755;51.374;10.662;2023-06-22T10:34:27;97409.56;;;27.16;61.50
72677;BME280;60755;51.374;10.662;2023-06-22T10:36:54;97408.09;;;27.06;62.29
72677;BME280;60755;51.374;10.662;2023-06-22T10:39:23;97406.63;;;26.96;61.38
72677;BME280;60755;51.374;10.662;2023-06-22T10:41:50;97398.50;;;26.84;61.35
72677;BME280;60755;51.374;10.662;2023-06-22T10:44:17;97397.97;;;26.91;62.50
72677;BME280;60755;51.374;10.662;2023-06-22T10:46:45;97400.44;;;27.08;60.07
72677;BME280;60755;51.374;10.662;2023-06-22T10:49:13;97399.56;;;27.04;57.98
72677;BME280;60755;51.374;10.662;2023-06-22T10:51:40;97404.03;;;26.88;61.05
72677;BME280;60755;51.374;10.662;2023-06-22T10:54:08;97402.78;;;26.97;59.06
72677;BME280;60755;51.374;10.662;2023-06-22T10:56:36;97404.72;;;27.09;59.83
72677;BME280;60755;51.374;10.662;2023-06-22T10:59:04;97402.00;;;27.46;59.34
72677;BME280;60755;51.374;10.662;2023-06-22T11:01:31;97403.38;;;27.80;60.51
72677;BME280;60755;51.374;10.662;2023-06-22T11:03:59;97399.72;;;27.60;59.02
72677;BME280;60755;51.374;10.662;2023-06-22T11:06:26;97404.44;;;27.51;60.57
72677;BME280;60755;51.374;10.662;2023-06-22T11:08:53;97398.56;;;27.73;56.76
72677;BME280;60755;51.374;10.662;2023-06-22T11:11:21;97385.22;;;27.52;58.08
72677;BME280;60755;51.374;10.662;2023-06-22T11:13:49;97384.53;;;27.55;58.31
72677;BME280;60755;51.374;10.662;2023-06-22T11:16:16;97378.97;;;27.64;58.96
72677;BME280;60755;51.374;10.662;2023-06-22T11:18:44;97381.06;;;27.43;59.07
72677;BME280;60755;51.374;10.662;2023-06-22T11:21:11;97382.09;;;27.26;59.53
72677;BME280;60755;51.374;10.662;2023-06-22T11:23:38;97372.72;;;27.48;60.89
72677;BME280;60755;51.374;10.662;2023-06-22T11:26:05;97372.94;;;27.55;62.02
72677;BME280;60755;51.374;10.662;2023-06-22T11:28:33;97365.72;;;27.59;61.81
72677;BME280;60755;51.374;10.662;2023-06-22T11:31:01;97355.53;;;27.80;60.45
72677;BME280;60755;51.374;10.662;2023-06-22T11:33:29;97352.41;;;27.66;60.83
72677;BME280;60755;51.374;10.662;2023-06-22T11:35:56;97348.72;;;27.71;61.56
72677;BME280;60755;51.374;10.662;2023-06-22T11:38:23;97348.03;;;27.74;61.30
72677;BME280;60755;51.374;10.662;2023-06-22T11:40:51;97352.84;;;27.80;59.73
72677;BME280;60755;51.374;10.662;2023-06-22T11:43:18;97346.56;;;27.76;60.58
72677;BME280;60755;51.374;10.662;2023-06-22T11:45:45;97341.53;;;27.50;61.19
72677;BME280;60755;51.374;10.662;2023-06-22T11:48:14;97339.25;;;27.77;61.37
72677;BME280;60755;51.374;10.662;2023-06-22T11:50:41;97337.13;;;27.70;59.71
72677;BME280;60755;51.374;10.662;2023-06-22T11:53:08;97330.56;;;27.83;58.30
72677;BME280;60755;51.374;10.662;2023-06-22T11:55:35;97320.72;;;28.07;59.28
72677;BME280;60755;51.374;10.662;2023-06-22T11:58:02;97322.59;;;28.19;59.32
72677;BME280;60755;51.374;10.662;2023-06-22T12:00:31;97318.09;;;28.38;61.27
72677;BME280;60755;51.374;10.662;2023-06-22T12:02:58;97311.59;;;28.11;59.43
72677;BME280;60755;51.374;10.662;2023-06-22T12:05:27;97303.00;;;28.37;58.67
72677;BME280;60755;51.374;10.662;2023-06-22T12:07:54;97294.69;;;28.46;56.23
72677;BME280;60755;51.374;10.662;2023-06-22T12:10:21;97303.34;;;27.76;57.68
72677;BME280;60755;51.374;10.662;2023-06-22T12:12:48;97308.25;;;27.86;59.55
72677;BME280;60755;51.374;10.662;2023-06-22T12:15:15;97306.22;;;27.55;60.45
72677;BME280;60755;51.374;10.662;2023-06-22T12:17:42;97296.38;;;27.63;58.25
72677;BME280;60755;51.374;10.662;2023-06-22T12:20:10;97284.09;;;27.66;59.52
72677;BME280;60755;51.374;10.662;2023-06-22T12:22:38;97279.03;;;27.76;59.10
72677;BME280;60755;51.374;10.662;2023-06-22T12:25:06;97273.16;;;27.74;56.31
72677;BME280;60755;51.374;10.662;2023-06-22T12:27:33;97262.56;;;27.81;58.15
72677;BME280;60755;51.374;10.662;2023-06-22T12:30:00;97269.53;;;27.82;58.45
72677;BME280;60755;51.374;10.662;2023-06-22T12:32:27;97252.72;;;28.05;58.59
72677;BME280;60755;51.374;10.662;2023-06-22T12:34:54;97247.50;;;28.12;57.38
72677;BME280;60755;51.374;10.662;2023-06-22T12:37:21;97249.00;;;28.25;56.87
72677;BME280;60755;51.374;10.662;2023-06-22T12:39:50;97239.41;;;28.43;57.02
72677;BME280;60755;51.374;10.662;2023-06-22T12:42:17;97238.38;;;28.32;55.94
72677;BME280;60755;51.374;10.662;2023-06-22T12:44:44;97232.78;;;28.25;55.43
72677;BME280;60755;51.374;10.662;2023-06-22T12:47:11;97236.44;;;28.17;56.68
72677;BME280;60755;51.374;10.662;2023-06-22T12:49:39;97230.56;;;28.62;54.26